Terminal Aerodrome Forecast
Issued by NWS Des Moines, IA

Home | Current Version | Previous Version | Text Only | Print | Product List | Glossary On
Versions: 1 2 3 4 5 6 7 8 9 10 11 12 13 14 15 16 17 18 19 20 21 22 23 24 25 26 27 28 29 30 31 32 33 34 35 36 37 38 39 40 41 42 43 44 45
000
FTUS43 KDMX 011411 AAA
TAFDSM
TAF AMD
KDSM 011411Z 0114/0212 06010KT 3/4SM -SN OVC005
     FM011600 03016G25KT 2SM -SN BLSN OVC009
     FM012000 02021G29KT 3SM -SN BLSN OVC015
     FM020200 35018G26KT 5SM BLSN OVC015
     FM020600 33009KT P6SM SCT015=

USA.gov is the U.S. government's official web portal to all federal, state and local government web resources and services.